Olias del Rey, Spain
Current Conditions -  °F | °C
As of 8:00 PM on Saturday 20 Dec 2014 (Local Time) from LEGT Reporting Station
Clear Clear  
Wind Chill: 48°   Ceiling: Unl
Heat Index: 48°   Visibility: 6mi
Dew Point: 37°   Wind: 3mph
Humidity: 66%   Direction: 10°N
Pressure: 30.48"   Gusts: NA
Location:  39.94°N, 3.99°W
Report Text: LEGT 201900Z 01003KT CAVOK 09/03 Q1032
Loading
Personal Weather Stations






























Interactive Weather Map New forecast layout! Learn more

10-Day Weather Forecast

Advertisements
Track Severe Weather on mobile